Time,TemperatureF,DewpointF,PressureIn,WindDirection,WindDirectionDegrees,WindSpeedMPH,WindSpeedGustMPH,Humidity,HourlyPrecipIn,Conditions,Clouds,dailyrainin,SolarRadiationWatts/m^2,SoftwareType,DateUTC
2013-02-18 00:01:00,41.0,27.0,-100.00,NNW,332,4.0,5.0,57,0.00,,,0.00,0.000000,,2013-02-18 08:01:00,
2013-02-18 00:11:00,41.0,27.0,-100.00,NNW,332,4.0,5.0,57,0.00,,,0.00,0.000000,,2013-02-18 08:11:00,
2013-02-18 00:21:00,41.0,27.0,-100.00,NNW,332,4.0,5.0,57,0.00,,,0.00,0.000000,,2013-02-18 08:21:00,
2013-02-18 00:42:00,36.0,29.0,-100.00,ESE,104,2.0,4.0,75,0.00,,,0.00,0.000000,,2013-02-18 08:42:00,
2013-02-18 00:52:00,36.0,29.0,-100.00,ESE,104,2.0,4.0,75,0.00,,,0.00,0.000000,,2013-02-18 08:52:00,
2013-02-18 01:02:00,36.0,29.0,-100.00,ESE,104,2.0,4.0,75,0.00,,,0.00,0.000000,,2013-02-18 09:02:00,
2013-02-18 01:11:00,36.0,29.0,-100.00,ESE,104,2.0,4.0,75,0.00,,,0.00,0.000000,,2013-02-18 09:11:00,
2013-02-18 01:22:00,36.0,29.0,-100.00,ESE,104,2.0,4.0,75,0.00,,,0.00,0.000000,,2013-02-18 09:22:00,
2013-02-18 01:42:00,36.0,26.0,-100.00,NNW,339,3.0,4.0,68,0.00,,,0.00,0.000000,,2013-02-18 09:42:00,
2013-02-18 01:52:00,36.0,26.0,-100.00,NNW,339,3.0,4.0,68,0.00,,,0.00,0.000000,,2013-02-18 09:52:00,
2013-02-18 02:01:00,36.0,26.0,-100.00,NNW,339,3.0,4.0,68,0.00,,,0.00,0.000000,,2013-02-18 10:01:00,
2013-02-18 02:11:00,36.0,26.0,-100.00,NNW,339,3.0,4.0,68,0.00,,,0.00,0.000000,,2013-02-18 10:11:00,
2013-02-18 02:21:00,36.0,26.0,-100.00,NNW,339,3.0,4.0,68,0.00,,,0.00,0.000000,,2013-02-18 10:21:00,
2013-02-18 02:42:00,34.0,28.0,-100.00,NE,54,0.0,4.0,79,0.00,,,0.00,0.000000,,2013-02-18 10:42:00,
2013-02-18 02:52:00,34.0,28.0,-100.00,NE,54,0.0,4.0,79,0.00,,,0.00,0.000000,,2013-02-18 10:52:00,
2013-02-18 03:01:00,34.0,28.0,-100.00,NE,54,0.0,4.0,79,0.00,,,0.00,0.000000,,2013-02-18 11:01:00,
2013-02-18 03:11:00,34.0,28.0,-100.00,NE,54,0.0,4.0,79,0.00,,,0.00,0.000000,,2013-02-18 11:11:00,
2013-02-18 03:21:00,34.0,28.0,-100.00,NE,54,0.0,4.0,79,0.00,,,0.00,0.000000,,2013-02-18 11:21:00,
2013-02-18 03:43:00,32.0,27.0,-100.00,North,6,0.0,3.0,83,0.00,,,0.00,0.000000,,2013-02-18 11:43:00,
2013-02-18 03:53:00,32.0,27.0,-100.00,North,6,0.0,3.0,83,0.00,,,0.00,0.000000,,2013-02-18 11:53:00,
2013-02-18 04:02:00,32.0,27.0,-100.00,North,6,0.0,3.0,83,0.00,,,0.00,0.000000,,2013-02-18 12:02:00,
2013-02-18 04:11:00,32.0,27.0,-100.00,North,6,0.0,3.0,83,0.00,,,0.00,0.000000,,2013-02-18 12:11:00,
2013-02-18 04:21:00,32.0,27.0,-100.00,North,6,0.0,3.0,83,0.00,,,0.00,0.000000,,2013-02-18 12:21:00,
2013-02-18 04:42:00,31.0,27.0,-100.00,NNE,14,2.0,3.0,86,0.00,,,0.00,0.000000,,2013-02-18 12:42:00,
2013-02-18 04:53:00,31.0,27.0,-100.00,NNE,14,2.0,3.0,86,0.00,,,0.00,0.000000,,2013-02-18 12:53:00,
2013-02-18 05:02:00,31.0,27.0,-100.00,NNE,14,2.0,3.0,86,0.00,,,0.00,0.000000,,2013-02-18 13:02:00,
2013-02-18 05:11:00,31.0,27.0,-100.00,NNE,14,2.0,3.0,86,0.00,,,0.00,0.000000,,2013-02-18 13:11:00,
2013-02-18 05:21:00,31.0,27.0,-100.00,NNE,14,2.0,3.0,86,0.00,,,0.00,0.000000,,2013-02-18 13:21:00,
2013-02-18 05:42:00,30.0,27.0,-100.00,NNE,23,3.0,5.0,88,0.00,,,0.00,0.000000,,2013-02-18 13:42:00,
2013-02-18 05:53:00,30.0,27.0,-100.00,NNE,23,3.0,5.0,88,0.00,,,0.00,0.000000,,2013-02-18 13:53:00,
2013-02-18 06:02:00,30.0,27.0,-100.00,NNE,23,3.0,5.0,88,0.00,,,0.00,0.000000,,2013-02-18 14:02:00,
2013-02-18 06:11:00,30.0,27.0,-100.00,NNE,23,3.0,5.0,88,0.00,,,0.00,0.000000,,2013-02-18 14:11:00,
2013-02-18 06:21:00,30.0,27.0,-100.00,NNE,23,3.0,5.0,88,0.00,,,0.00,0.000000,,2013-02-18 14:21:00,
2013-02-18 06:42:00,31.0,26.0,-100.00,NE,46,3.0,4.0,82,0.00,,,0.00,0.000000,,2013-02-18 14:42:00,
2013-02-18 06:53:00,31.0,26.0,-100.00,NE,46,3.0,4.0,82,0.00,,,0.00,0.000000,,2013-02-18 14:53:00,
2013-02-18 07:01:00,31.0,26.0,-100.00,NE,46,3.0,4.0,82,0.00,,,0.00,0.000000,,2013-02-18 15:01:00,
2013-02-18 07:11:00,31.0,26.0,-100.00,NE,46,3.0,4.0,82,0.00,,,0.00,0.000000,,2013-02-18 15:11:00,
2013-02-18 07:42:00,30.0,25.0,-100.00,NE,36,1.0,4.0,83,0.00,,,0.00,4.000000,,2013-02-18 15:42:00,
2013-02-18 07:52:00,30.0,25.0,-100.00,NE,36,1.0,4.0,83,0.00,,,0.00,4.000000,,2013-02-18 15:52:00,
2013-02-18 08:02:00,30.0,25.0,-100.00,NE,36,1.0,4.0,83,0.00,,,0.00,4.000000,,2013-02-18 16:02:00,
2013-02-18 08:11:00,30.0,25.0,-100.00,NE,36,1.0,4.0,83,0.00,,,0.00,4.000000,,2013-02-18 16:11:00,
2013-02-18 08:21:00,30.0,25.0,-100.00,NE,36,1.0,4.0,83,0.00,,,0.00,4.000000,,2013-02-18 16:21:00,
2013-02-18 08:43:00,36.0,29.0,-100.00,NW,306,0.0,5.0,76,0.00,,,0.00,84.000000,,2013-02-18 16:43:00,
2013-02-18 08:53:00,36.0,29.0,-100.00,NW,306,0.0,5.0,76,0.00,,,0.00,84.000000,,2013-02-18 16:53:00,
2013-02-18 09:03:00,36.0,29.0,-100.00,NW,306,0.0,5.0,76,0.00,,,0.00,84.000000,,2013-02-18 17:03:00,
2013-02-18 09:11:00,36.0,29.0,-100.00,NW,306,0.0,5.0,76,0.00,,,0.00,84.000000,,2013-02-18 17:11:00,
2013-02-18 09:21:00,36.0,29.0,-100.00,NW,306,0.0,5.0,76,0.00,,,0.00,84.000000,,2013-02-18 17:21:00,
2013-02-18 09:43:00,44.0,31.0,-100.00,NNW,333,1.0,4.0,60,0.00,,,0.00,266.000000,,2013-02-18 17:43:00,
2013-02-18 09:53:00,44.0,31.0,-100.00,NNW,333,1.0,4.0,60,0.00,,,0.00,266.000000,,2013-02-18 17:53:00,
2013-02-18 10:02:00,44.0,31.0,-100.00,NNW,333,1.0,4.0,60,0.00,,,0.00,266.000000,,2013-02-18 18:02:00,
2013-02-18 10:11:00,44.0,31.0,-100.00,NNW,333,1.0,4.0,60,0.00,,,0.00,266.000000,,2013-02-18 18:11:00,
2013-02-18 10:21:00,44.0,31.0,-100.00,NNW,333,1.0,4.0,60,0.00,,,0.00,266.000000,,2013-02-18 18:21:00,
2013-02-18 10:43:00,51.0,31.0,-100.00,NW,319,2.0,6.0,46,0.00,,,0.00,336.000000,,2013-02-18 18:43:00,
2013-02-18 10:52:00,51.0,31.0,-100.00,NW,319,2.0,6.0,46,0.00,,,0.00,336.000000,,2013-02-18 18:52:00,
2013-02-18 11:02:00,51.0,31.0,-100.00,NW,319,2.0,6.0,46,0.00,,,0.00,336.000000,,2013-02-18 19:02:00,
2013-02-18 11:12:00,51.0,31.0,-100.00,NW,319,2.0,6.0,46,0.00,,,0.00,336.000000,,2013-02-18 19:12:00,
2013-02-18 11:21:00,51.0,31.0,-100.00,NW,319,2.0,6.0,46,0.00,,,0.00,336.000000,,2013-02-18 19:21:00,
2013-02-18 11:43:00,56.0,33.0,-100.00,South,170,4.0,7.0,42,0.00,,,0.00,477.000000,,2013-02-18 19:43:00,
2013-02-18 11:53:00,56.0,33.0,-100.00,South,170,4.0,7.0,42,0.00,,,0.00,477.000000,,2013-02-18 19:53:00,
2013-02-18 12:02:00,56.0,33.0,-100.00,South,170,4.0,7.0,42,0.00,,,0.00,477.000000,,2013-02-18 20:02:00,
2013-02-18 12:11:00,56.0,33.0,-100.00,South,170,4.0,7.0,42,0.00,,,0.00,477.000000,,2013-02-18 20:11:00,
2013-02-18 12:21:00,56.0,33.0,-100.00,South,170,4.0,7.0,42,0.00,,,0.00,477.000000,,2013-02-18 20:21:00,
2013-02-18 12:42:00,57.0,34.0,-100.00,SSE,167,5.0,9.0,42,0.00,,,0.00,554.000000,,2013-02-18 20:42:00,
2013-02-18 12:53:00,57.0,34.0,-100.00,SSE,167,5.0,9.0,42,0.00,,,0.00,554.000000,,2013-02-18 20:53:00,
2013-02-18 13:02:00,57.0,34.0,-100.00,SSE,167,5.0,9.0,42,0.00,,,0.00,554.000000,,2013-02-18 21:02:00,
2013-02-18 13:11:00,57.0,34.0,-100.00,SSE,167,5.0,9.0,42,0.00,,,0.00,554.000000,,2013-02-18 21:11:00,
2013-02-18 13:21:00,57.0,34.0,-100.00,SSE,167,5.0,9.0,42,0.00,,,0.00,554.000000,,2013-02-18 21:21:00,
2013-02-18 13:43:00,57.0,34.0,-100.00,SSW,205,6.0,14.0,41,0.00,,,0.00,430.000000,,2013-02-18 21:43:00,
2013-02-18 13:53:00,57.0,34.0,-100.00,SSW,205,6.0,14.0,41,0.00,,,0.00,430.000000,,2013-02-18 21:53:00,
2013-02-18 14:02:00,57.0,34.0,-100.00,SSW,205,6.0,14.0,41,0.00,,,0.00,430.000000,,2013-02-18 22:02:00,
2013-02-18 14:11:00,57.0,34.0,-100.00,SSW,205,6.0,14.0,41,0.00,,,0.00,430.000000,,2013-02-18 22:11:00,
2013-02-18 14:21:00,57.0,34.0,-100.00,SSW,205,6.0,14.0,41,0.00,,,0.00,430.000000,,2013-02-18 22:21:00,
2013-02-18 14:43:00,57.0,34.0,-100.00,South,181,8.0,11.0,42,0.00,,,0.00,241.000000,,2013-02-18 22:43:00,
2013-02-18 14:53:00,57.0,34.0,-100.00,South,181,8.0,11.0,42,0.00,,,0.00,241.000000,,2013-02-18 22:53:00,
2013-02-18 15:02:00,57.0,34.0,-100.00,South,181,8.0,11.0,42,0.00,,,0.00,241.000000,,2013-02-18 23:02:00,
2013-02-18 15:11:00,57.0,34.0,-100.00,South,181,8.0,11.0,42,0.00,,,0.00,241.000000,,2013-02-18 23:11:00,
2013-02-18 15:21:00,57.0,34.0,-100.00,South,181,8.0,11.0,42,0.00,,,0.00,241.000000,,2013-02-18 23:21:00,
2013-02-18 15:43:00,56.0,34.0,-100.00,SSE,163,7.0,11.0,43,0.00,,,0.00,175.000000,,2013-02-18 23:43:00,
2013-02-18 15:53:00,56.0,34.0,-100.00,SSE,163,7.0,11.0,43,0.00,,,0.00,175.000000,,2013-02-18 23:53:00,
2013-02-18 16:02:00,56.0,34.0,-100.00,SSE,163,7.0,11.0,43,0.00,,,0.00,175.000000,,2013-02-19 00:02:00,
2013-02-18 16:11:00,56.0,34.0,-100.00,SSE,163,7.0,11.0,43,0.00,,,0.00,175.000000,,2013-02-19 00:11:00,
2013-02-18 16:21:00,56.0,34.0,-100.00,SSE,163,7.0,11.0,43,0.00,,,0.00,175.000000,,2013-02-19 00:21:00,
2013-02-18 16:44:00,55.0,37.0,-100.00,ESE,115,8.0,9.0,51,0.00,,,0.00,65.000000,,2013-02-19 00:44:00,
2013-02-18 16:54:00,55.0,37.0,-100.00,ESE,115,8.0,9.0,51,0.00,,,0.00,65.000000,,2013-02-19 00:54:00,
2013-02-18 17:02:00,55.0,37.0,-100.00,ESE,115,8.0,9.0,51,0.00,,,0.00,65.000000,,2013-02-19 01:02:00,
2013-02-18 17:12:00,55.0,37.0,-100.00,ESE,115,8.0,9.0,51,0.00,,,0.00,65.000000,,2013-02-19 01:12:00,
2013-02-18 17:21:00,55.0,37.0,-100.00,ESE,115,8.0,9.0,51,0.00,,,0.00,65.000000,,2013-02-19 01:21:00,
2013-02-18 17:45:00,54.0,40.0,-100.00,SSW,213,3.0,11.0,60,0.00,,,0.00,29.000000,,2013-02-19 01:45:00,
2013-02-18 17:55:00,54.0,40.0,-100.00,SSW,213,3.0,11.0,60,0.00,,,0.00,29.000000,,2013-02-19 01:55:00,
2013-02-18 18:02:00,54.0,40.0,-100.00,SSW,213,3.0,11.0,60,0.00,,,0.00,29.000000,,2013-02-19 02:02:00,
2013-02-18 18:12:00,54.0,40.0,-100.00,SSW,213,3.0,11.0,60,0.00,,,0.00,29.000000,,2013-02-19 02:12:00,
2013-02-18 18:21:00,54.0,40.0,-100.00,SSW,213,3.0,11.0,60,0.00,,,0.00,29.000000,,2013-02-19 02:21:00,
2013-02-18 18:43:00,52.0,40.0,-100.00,SSE,155,5.0,8.0,63,0.00,,,0.00,3.000000,,2013-02-19 02:43:00,
2013-02-18 18:54:00,52.0,40.0,-100.00,SSE,155,5.0,8.0,63,0.00,,,0.00,3.000000,,2013-02-19 02:54:00,
2013-02-18 19:04:00,52.0,40.0,-100.00,SSE,155,5.0,8.0,63,0.00,,,0.00,3.000000,,2013-02-19 03:04:00,
2013-02-18 19:12:00,52.0,40.0,-100.00,SSE,155,5.0,8.0,63,0.00,,,0.00,3.000000,,2013-02-19 03:12:00,
2013-02-18 19:21:00,52.0,40.0,-100.00,SSE,155,5.0,8.0,63,0.00,,,0.00,3.000000,,2013-02-19 03:21:00,
2013-02-18 19:45:00,52.0,40.0,-100.00,SE,132,7.0,9.0,64,0.00,,,0.00,0.000000,,2013-02-19 03:45:00,
2013-02-18 19:54:00,52.0,40.0,-100.00,SE,132,7.0,9.0,64,0.00,,,0.00,0.000000,,2013-02-19 03:54:00,
2013-02-18 20:02:00,52.0,40.0,-100.00,SE,132,7.0,9.0,64,0.00,,,0.00,0.000000,,2013-02-19 04:02:00,
2013-02-18 20:12:00,52.0,40.0,-100.00,SE,132,7.0,9.0,64,0.00,,,0.00,0.000000,,2013-02-19 04:12:00,
2013-02-18 20:21:00,52.0,40.0,-100.00,SE,132,7.0,9.0,64,0.00,,,0.00,0.000000,,2013-02-19 04:21:00,
2013-02-18 20:44:00,50.0,42.0,-100.00,SSE,167,9.0,13.0,73,0.00,,,0.00,0.000000,,2013-02-19 04:44:00,
2013-02-18 20:54:00,50.0,42.0,-100.00,SSE,167,9.0,13.0,73,0.00,,,0.00,0.000000,,2013-02-19 04:54:00,
2013-02-18 21:01:00,50.0,42.0,-100.00,SSE,167,9.0,13.0,73,0.00,,,0.00,0.000000,,2013-02-19 05:01:00,
2013-02-18 21:12:00,50.0,42.0,-100.00,SSE,167,9.0,13.0,73,0.00,,,0.00,0.000000,,2013-02-19 05:12:00,
2013-02-18 21:22:00,50.0,42.0,-100.00,SSE,167,9.0,13.0,73,0.00,,,0.00,0.000000,,2013-02-19 05:22:00,
2013-02-18 21:43:00,49.0,41.0,-100.00,South,169,13.0,20.0,74,0.00,,,0.00,0.000000,,2013-02-19 05:43:00,
2013-02-18 21:52:00,49.0,41.0,-100.00,South,169,13.0,20.0,74,0.00,,,0.00,0.000000,,2013-02-19 05:52:00,
2013-02-18 22:02:00,49.0,41.0,-100.00,South,169,13.0,20.0,74,0.00,,,0.00,0.000000,,2013-02-19 06:02:00,
2013-02-18 22:11:00,49.0,41.0,-100.00,South,169,13.0,20.0,74,0.00,,,0.00,0.000000,,2013-02-19 06:11:00,
2013-02-18 22:21:00,49.0,41.0,-100.00,South,169,13.0,20.0,74,0.00,,,0.00,0.000000,,2013-02-19 06:21:00,
2013-02-18 22:42:00,48.0,39.0,-100.00,South,174,14.0,22.0,70,0.00,,,0.00,0.000000,,2013-02-19 06:42:00,
2013-02-18 22:52:00,48.0,39.0,-100.00,South,174,14.0,22.0,70,0.00,,,0.00,0.000000,,2013-02-19 06:52:00,
2013-02-18 23:01:00,48.0,39.0,-100.00,South,174,14.0,22.0,70,0.00,,,0.00,0.000000,,2013-02-19 07:01:00,
2013-02-18 23:11:00,48.0,39.0,-100.00,South,174,14.0,22.0,70,0.00,,,0.00,0.000000,,2013-02-19 07:11:00,
2013-02-18 23:21:00,48.0,39.0,-100.00,South,174,14.0,22.0,70,0.00,,,0.00,0.000000,,2013-02-19 07:21:00,
2013-02-18 23:42:00,47.0,38.0,-100.00,South,170,16.0,21.0,70,0.00,,,0.00,0.000000,,2013-02-19 07:42:00,
2013-02-18 23:52:00,47.0,38.0,-100.00,South,170,16.0,21.0,70,0.00,,,0.00,0.000000,,2013-02-19 07:52:00,